createdAt,value
2022-09-15T00:01:17.918Z,97616.40
2022-09-15T00:03:47.907Z,97605.80
2022-09-15T00:06:16.588Z,97594.80
2022-09-15T00:08:44.722Z,97594.60
2022-09-15T00:11:23.073Z,97587.00
2022-09-15T00:13:52.708Z,97586.80
2022-09-15T00:16:25.380Z,97588.00
2022-09-15T00:18:53.736Z,97582.60
2022-09-15T00:21:26.594Z,97585.80
2022-09-15T00:23:55.193Z,97584.60
2022-09-15T00:26:27.154Z,97583.60
2022-09-15T00:28:57.628Z,97576.60
2022-09-15T00:31:28.325Z,97570.20
2022-09-15T00:33:58.812Z,97562.00
2022-09-15T00:36:26.970Z,97558.40
2022-09-15T00:38:55.974Z,97553.20
2022-09-15T00:41:24.925Z,97550.80
2022-09-15T00:44:18.363Z,97550.00
2022-09-15T00:47:17.671Z,97553.60
2022-09-15T00:49:50.800Z,97551.20
2022-09-15T00:52:27.832Z,97551.80
2022-09-15T00:55:15.973Z,97551.80
2022-09-15T00:57:52.883Z,97553.80
2022-09-15T01:00:24.716Z,97556.00
2022-09-15T01:02:53.037Z,97561.00
2022-09-15T01:05:26.451Z,97571.60
2022-09-15T01:07:59.612Z,97559.00
2022-09-15T01:10:38.992Z,97551.40
2022-09-15T01:13:13.241Z,97540.00
2022-09-15T01:16:19.934Z,97528.60
2022-09-15T01:19:13.171Z,97529.80
2022-09-15T01:22:11.711Z,97528.80
2022-09-15T01:25:07.105Z,97529.40
2022-09-15T01:27:42.788Z,97525.00
2022-09-15T01:30:24.863Z,97513.00
2022-09-15T01:33:05.711Z,97520.40
2022-09-15T01:35:42.415Z,97515.60
2022-09-15T01:38:39.876Z,97520.00
2022-09-15T01:41:43.055Z,97521.40
2022-09-15T01:44:19.151Z,97515.20
2022-09-15T01:46:52.321Z,97513.80
2022-09-15T01:49:35.569Z,97507.20
2022-09-15T01:52:03.341Z,97502.40
2022-09-15T01:54:39.056Z,97505.60
2022-09-15T01:57:06.687Z,97501.20
2022-09-15T01:59:34.681Z,97506.20
2022-09-15T02:02:14.591Z,97503.60
2022-09-15T02:04:56.524Z,97498.20
2022-09-15T02:07:58.493Z,97496.40
2022-09-15T02:10:58.961Z,97497.00
2022-09-15T02:14:11.475Z,97496.40
2022-09-15T02:16:47.680Z,97494.20
2022-09-15T02:19:41.672Z,97503.40
2022-09-15T02:22:28.221Z,97494.00
2022-09-15T02:25:06.231Z,97489.80
2022-09-15T02:27:44.599Z,97489.00
2022-09-15T02:30:17.766Z,97492.40
2022-09-15T02:33:06.794Z,97493.40
2022-09-15T02:35:36.725Z,97492.20
2022-09-15T02:38:09.117Z,97489.40
2022-09-15T02:40:43.015Z,97484.60
2022-09-15T02:43:15.256Z,97486.40
2022-09-15T02:45:43.575Z,97484.00
2022-09-15T02:48:11.789Z,97478.40
2022-09-15T02:50:39.484Z,97477.80
2022-09-15T02:53:08.125Z,97479.60
2022-09-15T02:55:35.697Z,97476.00
2022-09-15T02:58:03.745Z,97477.00
2022-09-15T03:00:31.697Z,97478.20
2022-09-15T03:02:59.298Z,97476.80
2022-09-15T03:05:30.439Z,97479.60
2022-09-15T03:07:58.046Z,97478.80
2022-09-15T03:10:26.615Z,97477.80
2022-09-15T03:12:55.167Z,97481.00
2022-09-15T03:15:25.998Z,97476.40
2022-09-15T03:17:53.938Z,97485.00
2022-09-15T03:20:30.347Z,97487.00
2022-09-15T03:22:57.979Z,97483.40
2022-09-15T03:25:27.017Z,97485.20
2022-09-15T03:27:55.047Z,97487.20
2022-09-15T03:30:22.780Z,97484.00
2022-09-15T03:32:50.652Z,97486.60
2022-09-15T03:35:18.362Z,97486.00
2022-09-15T03:37:45.922Z,97489.40
2022-09-15T03:40:14.409Z,97486.20
2022-09-15T03:42:42.025Z,97486.00
2022-09-15T03:45:10.067Z,97485.60
2022-09-15T03:47:37.594Z,97486.80
2022-09-15T03:50:06.926Z,97488.00
2022-09-15T03:52:34.529Z,97485.60
2022-09-15T03:55:02.093Z,97488.20
2022-09-15T03:57:29.663Z,97483.60
2022-09-15T03:59:57.239Z,97481.20
2022-09-15T04:02:24.912Z,97478.00
2022-09-15T04:04:52.439Z,97483.40
2022-09-15T04:07:20.023Z,97476.80
2022-09-15T04:09:47.689Z,97478.40
2022-09-15T04:12:15.333Z,97476.00
2022-09-15T04:14:43.184Z,97473.60
2022-09-15T04:17:11.600Z,97480.20
2022-09-15T04:19:39.242Z,97480.00
2022-09-15T04:22:07.000Z,97491.60
2022-09-15T04:24:34.560Z,97489.60
2022-09-15T04:27:02.116Z,97489.00
2022-09-15T04:29:30.038Z,97493.60
2022-09-15T04:31:57.861Z,97488.80
2022-09-15T04:34:25.505Z,97490.20
2022-09-15T04:36:53.164Z,97494.20
2022-09-15T04:39:20.828Z,97491.00
2022-09-15T04:41:48.394Z,97493.80
2022-09-15T04:44:15.983Z,97491.00
2022-09-15T04:46:43.701Z,97489.60
2022-09-15T04:49:11.425Z,97495.00
2022-09-15T04:51:39.002Z,97498.60
2022-09-15T04:54:06.562Z,97498.40
2022-09-15T04:56:34.162Z,97504.00
2022-09-15T04:59:04.229Z,97507.00
2022-09-15T05:01:35.294Z,97515.20
2022-09-15T05:04:04.102Z,97521.40
2022-09-15T05:06:34.734Z,97523.40
2022-09-15T05:09:09.801Z,97525.20
2022-09-15T05:11:38.633Z,97533.20
2022-09-15T05:14:08.159Z,97542.00
2022-09-15T05:16:36.028Z,97542.40
2022-09-15T05:19:04.791Z,97550.00
2022-09-15T05:21:32.891Z,97551.60
2022-09-15T05:24:00.768Z,97555.60
2022-09-15T05:26:29.933Z,97565.40
2022-09-15T05:28:58.207Z,97571.40
2022-09-15T05:31:32.189Z,97575.20
2022-09-15T05:34:03.697Z,97577.60
2022-09-15T05:36:32.841Z,97579.80
2022-09-15T05:39:01.867Z,97585.60
2022-09-15T05:41:30.084Z,97579.80
2022-09-15T05:43:59.121Z,97576.60
2022-09-15T05:46:29.079Z,97589.20
2022-09-15T05:48:58.517Z,97595.20
2022-09-15T05:51:26.789Z,97591.00
2022-09-15T05:53:54.346Z,97587.00
2022-09-15T05:56:22.046Z,97576.40
2022-09-15T05:58:49.947Z,97571.80
2022-09-15T06:01:25.244Z,97585.00
2022-09-15T06:03:55.214Z,97590.40
2022-09-15T06:06:25.890Z,97591.40
2022-09-15T06:08:58.971Z,97597.60
2022-09-15T06:11:30.895Z,97602.40
2022-09-15T06:14:03.796Z,97610.20
2022-09-15T06:16:35.590Z,97621.20
2022-09-15T06:19:03.853Z,97629.60
2022-09-15T06:21:33.421Z,97633.20
2022-09-15T06:24:05.979Z,97632.00
2022-09-15T06:26:34.371Z,97635.40
2022-09-15T06:29:05.328Z,97631.60
2022-09-15T06:31:35.706Z,97630.00
2022-09-15T06:34:04.091Z,97629.40
2022-09-15T06:36:32.786Z,97631.80
2022-09-15T06:39:00.503Z,97632.00
2022-09-15T06:41:35.318Z,97633.00
2022-09-15T06:44:10.494Z,97630.20
2022-09-15T06:46:38.692Z,97627.00
2022-09-15T06:49:08.807Z,97632.20
2022-09-15T06:51:36.747Z,97629.00
2022-09-15T06:54:06.018Z,97630.20
2022-09-15T06:56:37.872Z,97635.60
2022-09-15T06:59:06.721Z,97651.60
2022-09-15T07:01:39.037Z,97650.20
2022-09-15T07:04:09.928Z,97640.80
2022-09-15T07:06:39.426Z,97640.80
2022-09-15T07:09:07.942Z,97647.40
2022-09-15T07:11:35.707Z,97651.00
2022-09-15T07:14:03.848Z,97652.00
2022-09-15T07:16:31.566Z,97656.80
2022-09-15T07:19:01.831Z,97666.40
2022-09-15T07:21:29.427Z,97671.40
2022-09-15T07:23:58.235Z,97681.00
2022-09-15T07:26:29.098Z,97696.40
2022-09-15T07:29:01.165Z,97695.40
2022-09-15T07:31:32.899Z,97705.00
2022-09-15T07:34:01.395Z,97707.80
2022-09-15T07:36:30.983Z,97705.00
2022-09-15T07:38:58.755Z,97703.40
2022-09-15T07:41:30.020Z,97705.80
2022-09-15T07:43:59.917Z,97709.00
2022-09-15T07:46:32.287Z,97722.40
2022-09-15T07:49:02.731Z,97726.20
2022-09-15T07:51:30.906Z,97728.20
2022-09-15T07:53:58.748Z,97730.60
2022-09-15T07:56:26.748Z,97733.60
2022-09-15T07:58:54.289Z,97739.20
2022-09-15T08:01:22.707Z,97741.80
2022-09-15T08:03:52.323Z,97748.80
2022-09-15T08:06:25.149Z,97752.60
2022-09-15T08:08:59.224Z,97758.00
2022-09-15T08:11:29.136Z,97765.20
2022-09-15T08:14:02.427Z,97768.60
2022-09-15T08:16:30.238Z,97777.80
2022-09-15T08:18:58.142Z,97783.40
2022-09-15T08:21:27.684Z,97784.80
2022-09-15T08:23:59.403Z,97780.80
2022-09-15T08:26:29.322Z,97779.40
2022-09-15T08:28:58.059Z,97786.60
2022-09-15T08:31:25.866Z,97785.60
2022-09-15T08:33:55.624Z,97792.40
2022-09-15T08:36:27.456Z,97797.80
2022-09-15T08:38:55.635Z,97800.00
2022-09-15T08:41:33.517Z,97804.40
2022-09-15T08:44:21.206Z,97809.40
2022-09-15T08:47:08.632Z,97811.00
2022-09-15T08:50:10.375Z,97808.80
2022-09-15T08:52:48.232Z,97809.80
2022-09-15T08:55:48.291Z,97805.20
2022-09-15T08:58:22.796Z,97803.20
2022-09-15T09:01:03.966Z,97807.40
2022-09-15T09:03:53.803Z,97808.20
2022-09-15T09:06:47.400Z,97809.60
2022-09-15T09:09:33.105Z,97816.40
2022-09-15T09:12:44.943Z,97815.40
2022-09-15T09:16:12.427Z,97823.20
2022-09-15T09:19:02.050Z,97828.60
2022-09-15T09:21:35.239Z,97826.40
2022-09-15T09:24:36.911Z,97830.40
2022-09-15T09:27:12.954Z,97818.40
2022-09-15T09:29:49.872Z,97819.20
2022-09-15T09:32:27.623Z,97812.20
2022-09-15T09:35:04.648Z,97812.60
2022-09-15T09:37:33.899Z,97809.20
2022-09-15T09:40:01.904Z,97815.00
2022-09-15T09:42:34.833Z,97815.00
2022-09-15T09:45:05.782Z,97811.60
2022-09-15T09:47:36.320Z,97816.40
2022-09-15T09:50:25.268Z,97810.60
2022-09-15T09:52:53.048Z,97811.40
2022-09-15T09:55:23.757Z,97808.20
2022-09-15T09:57:51.428Z,97811.80
2022-09-15T10:00:34.397Z,97802.40
2022-09-15T10:03:16.520Z,97807.60
2022-09-15T10:05:46.419Z,97816.60
2022-09-15T10:08:20.544Z,97820.60
2022-09-15T10:11:02.845Z,97825.60
2022-09-15T10:13:30.499Z,97823.00
2022-09-15T10:16:02.456Z,97818.60
2022-09-15T10:18:38.169Z,97816.20
2022-09-15T10:21:09.700Z,97817.60
2022-09-15T10:23:37.460Z,97821.80
2022-09-15T10:26:34.444Z,97821.20
2022-09-15T10:29:15.189Z,97809.40
2022-09-15T10:31:45.660Z,97812.00
2022-09-15T10:34:31.997Z,97807.60
2022-09-15T10:37:40.523Z,97799.20
2022-09-15T10:40:29.105Z,97790.00
2022-09-15T10:43:14.430Z,97786.80
2022-09-15T10:45:49.701Z,97781.60
2022-09-15T10:48:36.428Z,97761.80
2022-09-15T10:51:46.503Z,97762.60
2022-09-15T10:54:41.829Z,97766.00
2022-09-15T10:58:18.310Z,97769.60
2022-09-15T11:01:22.938Z,97767.40
2022-09-15T11:04:32.447Z,97763.40
2022-09-15T11:08:10.777Z,97765.00
2022-09-15T11:11:36.028Z,97773.20
2022-09-15T11:14:54.331Z,97778.20
2022-09-15T11:18:00.005Z,97780.20
2022-09-15T11:21:01.855Z,97777.60
2022-09-15T11:23:46.785Z,97775.00
2022-09-15T11:26:28.568Z,97767.00
2022-09-15T11:29:05.766Z,97764.40
2022-09-15T11:31:46.489Z,97752.60
2022-09-15T11:34:25.884Z,97759.40
2022-09-15T11:37:10.704Z,97766.40
2022-09-15T11:40:02.318Z,97774.40
2022-09-15T11:43:05.697Z,97764.40
2022-09-15T11:45:43.482Z,97749.20
2022-09-15T11:48:26.654Z,97743.20
2022-09-15T11:51:00.025Z,97755.80
2022-09-15T11:53:43.879Z,97761.40
2022-09-15T11:56:31.996Z,97766.80
2022-09-15T11:59:32.665Z,97761.40
2022-09-15T12:02:19.569Z,97759.80
2022-09-15T12:05:15.041Z,97764.40
2022-09-15T12:07:59.572Z,97761.20
2022-09-15T12:10:35.252Z,97747.40
2022-09-15T12:13:05.630Z,97743.40
2022-09-15T12:15:33.675Z,97739.80
2022-09-15T12:18:34.401Z,97743.20
2022-09-15T12:21:34.701Z,97748.00
2022-09-15T12:24:23.444Z,97738.00
2022-09-15T12:26:52.055Z,97731.60
2022-09-15T12:29:22.366Z,97729.00
2022-09-15T12:32:27.709Z,97732.40
2022-09-15T12:35:15.336Z,97726.00
2022-09-15T12:37:58.027Z,97725.00
2022-09-15T12:40:40.462Z,97724.80
2022-09-15T12:43:11.521Z,97728.60
2022-09-15T12:45:43.611Z,97728.60
2022-09-15T12:48:24.637Z,97727.40
2022-09-15T12:51:01.670Z,97737.20
2022-09-15T12:56:24.628Z,97739.20
2022-09-15T12:58:54.107Z,97742.00
2022-09-15T13:01:24.606Z,97734.00
2022-09-15T13:03:55.295Z,97737.40
2022-09-15T13:06:29.574Z,97729.20
2022-09-15T13:09:05.911Z,97736.20
2022-09-15T13:11:37.615Z,97733.00
2022-09-15T13:14:08.699Z,97734.80
2022-09-15T13:16:46.499Z,97744.80
2022-09-15T13:19:41.729Z,97744.60
2022-09-15T13:22:12.072Z,97739.00
2022-09-15T13:25:13.693Z,97739.60
2022-09-15T13:28:02.622Z,97747.00
2022-09-15T13:30:59.674Z,97734.40
2022-09-15T13:39:55.727Z,97747.20
2022-09-15T13:43:00.619Z,97744.80
2022-09-15T13:45:55.394Z,97743.20
2022-09-15T13:48:34.893Z,97741.20
2022-09-15T13:51:18.198Z,97732.00
2022-09-15T13:53:54.316Z,97732.60
2022-09-15T13:56:35.527Z,97726.00
2022-09-15T13:59:12.860Z,97721.80
2022-09-15T14:01:44.548Z,97714.20
2022-09-15T14:04:24.547Z,97712.40
2022-09-15T14:07:00.004Z,97698.20
2022-09-15T14:09:44.876Z,97707.00
2022-09-15T14:12:16.495Z,97713.80
2022-09-15T14:14:55.559Z,97717.00
2022-09-15T14:17:28.975Z,97715.80
2022-09-15T14:20:00.765Z,97710.00
2022-09-15T14:22:33.053Z,97711.00
2022-09-15T14:25:08.240Z,97709.20
2022-09-15T14:27:43.232Z,97704.00
2022-09-15T14:30:26.379Z,97704.20
2022-09-15T14:33:00.682Z,97699.20
2022-09-15T14:35:38.080Z,97702.60
2022-09-15T14:38:05.795Z,97695.60
2022-09-15T14:40:39.661Z,97694.40
2022-09-15T14:43:35.855Z,97695.00
2022-09-15T14:46:15.244Z,97698.20
2022-09-15T14:48:42.909Z,97700.00
2022-09-15T14:51:28.665Z,97692.20
2022-09-15T14:54:05.533Z,97697.00
2022-09-15T14:56:43.305Z,97695.00
2022-09-15T14:59:21.382Z,97697.80
2022-09-15T15:02:02.964Z,97701.80
2022-09-15T15:04:44.822Z,97705.20
2022-09-15T15:07:30.836Z,97701.60
2022-09-15T15:10:04.256Z,97705.40
2022-09-15T15:12:40.976Z,97698.40
2022-09-15T15:15:13.757Z,97700.80
2022-09-15T15:17:54.496Z,97699.80
2022-09-15T15:20:32.872Z,97697.00
2022-09-15T15:23:16.013Z,97692.40
2022-09-15T15:25:44.588Z,97690.60
2022-09-15T15:28:33.054Z,97691.60
2022-09-15T15:31:21.754Z,97694.00
2022-09-15T15:34:05.318Z,97693.80
2022-09-15T15:36:36.573Z,97691.40
2022-09-15T15:39:07.968Z,97694.20
2022-09-15T15:41:42.167Z,97697.20
2022-09-15T15:44:15.983Z,97707.00
2022-09-15T15:46:56.187Z,97711.60
2022-09-15T15:49:32.457Z,97708.60
2022-09-15T15:52:01.851Z,97709.00
2022-09-15T15:54:29.768Z,97706.80
2022-09-15T15:57:21.798Z,97717.80
2022-09-15T15:59:57.495Z,97715.00
2022-09-15T16:02:28.402Z,97710.00
2022-09-15T16:04:56.023Z,97708.00
2022-09-15T16:07:29.903Z,97715.20
2022-09-15T16:10:01.277Z,97717.80
2022-09-15T16:12:30.813Z,97716.80
2022-09-15T16:15:00.935Z,97711.40
2022-09-15T16:17:28.524Z,97710.40
2022-09-15T16:19:56.473Z,97705.40
2022-09-15T16:22:24.164Z,97708.20
2022-09-15T16:24:51.725Z,97709.40
2022-09-15T16:27:19.257Z,97720.00
2022-09-15T16:29:46.905Z,97721.40
2022-09-15T16:32:21.270Z,97725.20
2022-09-15T16:34:51.300Z,97727.80
2022-09-15T16:37:19.074Z,97723.00
2022-09-15T16:39:46.660Z,97723.60
2022-09-15T16:42:14.809Z,97731.00
2022-09-15T16:44:43.088Z,97732.20
2022-09-15T16:47:10.962Z,97736.20
2022-09-15T16:49:39.428Z,97745.40
2022-09-15T16:52:12.848Z,97747.20
2022-09-15T16:54:40.548Z,97745.80
2022-09-15T16:57:08.152Z,97749.20
2022-09-15T16:59:36.230Z,97743.00
2022-09-15T17:02:13.564Z,97749.80
2022-09-15T17:04:41.214Z,97737.20
2022-09-15T17:07:08.801Z,97728.40
2022-09-15T17:09:36.908Z,97736.80
2022-09-15T17:12:04.959Z,97742.00
2022-09-15T17:14:33.530Z,97751.20
2022-09-15T17:17:01.183Z,97753.80
2022-09-15T17:19:29.151Z,97757.40
2022-09-15T17:21:56.753Z,97756.00
2022-09-15T17:24:24.378Z,97756.00
2022-09-15T17:26:52.685Z,97754.80
2022-09-15T17:29:20.639Z,97753.40
2022-09-15T17:31:48.736Z,97756.60
2022-09-15T17:34:16.445Z,97755.00
2022-09-15T17:36:43.992Z,97761.80
2022-09-15T17:39:11.910Z,97765.60
2022-09-15T17:41:39.465Z,97757.80
2022-09-15T17:44:13.159Z,97757.80
2022-09-15T17:46:41.140Z,97757.20
2022-09-15T17:49:08.777Z,97757.80
2022-09-15T17:51:36.430Z,97761.80
2022-09-15T17:54:04.285Z,97764.60
2022-09-15T17:56:32.446Z,97769.00
2022-09-15T17:59:00.896Z,97767.60
2022-09-15T18:01:28.520Z,97774.00
2022-09-15T18:03:56.302Z,97770.80
2022-09-15T18:06:23.965Z,97772.00
2022-09-15T18:08:51.759Z,97774.80
2022-09-15T18:11:19.437Z,97771.80
2022-09-15T18:13:47.057Z,97777.00
2022-09-15T18:16:14.886Z,97775.20
2022-09-15T18:18:42.956Z,97778.80
2022-09-15T18:21:25.115Z,97778.20
2022-09-15T18:23:53.800Z,97785.20
2022-09-15T18:26:26.275Z,97780.40
2022-09-15T18:28:55.065Z,97776.20
2022-09-15T18:31:22.951Z,97775.20
2022-09-15T18:33:50.633Z,97780.80
2022-09-15T18:36:18.366Z,97776.00
2022-09-15T18:38:46.070Z,97772.20
2022-09-15T18:41:13.711Z,97775.00
2022-09-15T18:43:41.388Z,97771.40
2022-09-15T18:46:09.091Z,97777.60
2022-09-15T18:48:37.083Z,97782.60
2022-09-15T18:51:09.263Z,97780.80
2022-09-15T18:53:37.984Z,97769.20
2022-09-15T18:56:14.777Z,97771.40
2022-09-15T18:58:42.966Z,97777.40
2022-09-15T19:01:10.736Z,97785.60
2022-09-15T19:03:43.984Z,97785.40
2022-09-15T19:06:13.134Z,97788.40
2022-09-15T19:08:40.772Z,97786.80
2022-09-15T19:11:09.294Z,97781.20
2022-09-15T19:13:37.019Z,97785.60
2022-09-15T19:16:07.135Z,97789.80
2022-09-15T19:18:36.364Z,97791.00
2022-09-15T19:21:10.621Z,97792.20
2022-09-15T19:23:39.182Z,97799.20
2022-09-15T19:26:13.629Z,97800.40
2022-09-15T19:28:45.999Z,97802.80
2022-09-15T19:31:13.945Z,97795.40
2022-09-15T19:33:41.770Z,97790.40
2022-09-15T19:36:28.529Z,97792.60
2022-09-15T19:38:59.304Z,97784.40
2022-09-15T19:41:27.068Z,97783.40
2022-09-15T19:43:54.940Z,97788.80
2022-09-15T19:46:25.202Z,97792.60
2022-09-15T19:48:53.652Z,97794.20
2022-09-15T19:51:21.985Z,97794.20
2022-09-15T19:53:52.817Z,97796.60
2022-09-15T19:56:23.429Z,97797.80
2022-09-15T19:58:51.067Z,97806.80
2022-09-15T20:01:19.033Z,97815.00
2022-09-15T20:03:46.747Z,97813.20
2022-09-15T20:06:14.483Z,97804.20
2022-09-15T20:08:44.586Z,97802.80
2022-09-15T20:11:12.480Z,97796.80
2022-09-15T20:13:43.922Z,97804.00
2022-09-15T20:16:18.237Z,97801.60
2022-09-15T20:18:48.732Z,97806.00
2022-09-15T20:21:48.629Z,97804.60
2022-09-15T20:24:17.359Z,97806.00
2022-09-15T20:26:44.943Z,97804.80
2022-09-15T20:29:13.568Z,97800.00
2022-09-15T20:31:42.552Z,97800.40
2022-09-15T20:34:10.103Z,97804.80
2022-09-15T20:36:39.275Z,97801.20
2022-09-15T20:39:12.842Z,97805.60
2022-09-15T20:41:45.105Z,97804.20
2022-09-15T20:44:14.032Z,97815.00
2022-09-15T20:46:43.197Z,97814.40
2022-09-15T20:49:12.064Z,97820.20
2022-09-15T20:51:39.845Z,97822.40
2022-09-15T20:54:07.567Z,97826.40
2022-09-15T20:56:36.220Z,97826.00
2022-09-15T20:59:06.152Z,97829.00
2022-09-15T21:01:37.904Z,97829.40
2022-09-15T21:04:09.040Z,97832.40
2022-09-15T21:06:37.041Z,97837.80
2022-09-15T21:09:06.101Z,97830.60
2022-09-15T21:11:34.265Z,97834.20
2022-09-15T21:14:02.104Z,97845.00
2022-09-15T21:16:30.421Z,97849.60
2022-09-15T21:18:59.242Z,97852.20
2022-09-15T21:21:33.530Z,97857.20
2022-09-15T21:24:07.810Z,97851.40
2022-09-15T21:27:03.014Z,97852.20
2022-09-15T21:29:31.351Z,97856.60
2022-09-15T21:31:59.022Z,97853.60
2022-09-15T21:34:27.065Z,97847.60
2022-09-15T21:36:54.721Z,97847.80
2022-09-15T21:39:22.301Z,97849.80
2022-09-15T21:41:50.097Z,97852.80
2022-09-15T21:44:17.732Z,97860.00
2022-09-15T21:46:47.080Z,97857.20
2022-09-15T21:49:14.897Z,97864.00
2022-09-15T21:51:42.956Z,97870.40
2022-09-15T21:54:10.559Z,97874.60
2022-09-15T21:56:38.200Z,97879.80
2022-09-15T21:59:06.034Z,97877.60
2022-09-15T22:01:33.789Z,97880.80
2022-09-15T22:04:06.268Z,97878.80
2022-09-15T22:06:40.869Z,97883.80
2022-09-15T22:09:16.545Z,97881.40
2022-09-15T22:11:44.519Z,97880.20
2022-09-15T22:14:13.155Z,97885.20
2022-09-15T22:16:42.841Z,97888.80
2022-09-15T22:19:12.098Z,97890.20
2022-09-15T22:21:42.125Z,97891.00
2022-09-15T22:24:13.345Z,97889.00
2022-09-15T22:26:43.443Z,97896.40
2022-09-15T22:29:12.016Z,97899.80
2022-09-15T22:31:40.818Z,97900.40
2022-09-15T22:34:08.518Z,97899.40
2022-09-15T22:36:36.125Z,97898.00
2022-09-15T22:39:05.227Z,97903.60
2022-09-15T22:41:37.873Z,97906.20
2022-09-15T22:44:17.862Z,97908.40
2022-09-15T22:46:46.174Z,97911.60
2022-09-15T22:49:13.895Z,97909.20
2022-09-15T22:51:41.845Z,97915.60
2022-09-15T22:54:09.456Z,97915.60
2022-09-15T22:56:37.082Z,97908.40
2022-09-15T22:59:04.610Z,97918.40
2022-09-15T23:01:32.244Z,97921.00
2022-09-15T23:04:02.311Z,97923.20
2022-09-15T23:06:33.167Z,97917.00
2022-09-15T23:09:06.446Z,97917.60
2022-09-15T23:11:37.410Z,97919.00
2022-09-15T23:14:17.649Z,97921.40
2022-09-15T23:16:45.305Z,97918.20
2022-09-15T23:19:14.477Z,97919.40
2022-09-15T23:21:42.095Z,97915.80
2022-09-15T23:24:12.414Z,97916.80
2022-09-15T23:26:40.364Z,97917.60
2022-09-15T23:29:08.168Z,97917.20
2022-09-15T23:31:35.934Z,97919.80
2022-09-15T23:34:03.470Z,97926.60
2022-09-15T23:36:31.005Z,97929.40
2022-09-15T23:38:58.617Z,97926.40
2022-09-15T23:41:26.659Z,97927.60
2022-09-15T23:43:55.621Z,97931.00
2022-09-15T23:46:23.981Z,97932.60
2022-09-15T23:48:51.570Z,97935.00
2022-09-15T23:51:19.177Z,97935.60
2022-09-15T23:53:47.011Z,97939.40
2022-09-15T23:56:14.878Z,97945.60
2022-09-15T23:58:42.557Z,97940.40
